Time;durP1;ratioP1;P1;durP2;ratioP2;P2;SDS_P1;SDS_P2;PMS_P1;PMS_P2;Temp;Humidity;BMP_temperature;BMP_pressure;BME280_temperature;BME280_humidity;BME280_pressure;Samples;Min_cycle;Max_cycle;Signal;HPM_P1;HPM_P2
2021/04/24 00:01:14;;;;;;;11.18;8.18;;;13.50;66.40;;;;;;5112994;28;20023;-68
2021/04/24 00:03:40;;;;;;;12.18;8.40;;;13.40;66.60;;;;;;5113075;28;20024;-67
2021/04/24 00:06:05;;;;;;;14.57;8.10;;;13.40;66.90;;;;;;5112878;28;20047;-68
2021/04/24 00:08:33;;;;;;;11.68;8.13;;;13.30;67.10;;;;;;5113000;28;20080;-67
2021/04/24 00:11:00;;;;;;;10.25;7.78;;;13.20;67.30;;;;;;5112965;28;20024;-67
2021/04/24 00:13:26;;;;;;;13.18;7.35;;;13.20;67.30;;;;;;5113191;28;20157;-67
2021/04/24 00:15:52;;;;;;;10.32;7.07;;;13.30;67.80;;;;;;5113331;28;20047;-67
2021/04/24 00:18:18;;;;;;;10.85;6.63;;;13.30;67.90;;;;;;5113239;28;20104;-67
2021/04/24 00:20:44;;;;;;;11.45;7.05;;;13.20;67.90;;;;;;5112669;28;20023;-68
2021/04/24 00:23:09;;;;;;;9.38;6.57;;;13.20;67.80;;;;;;5113093;28;20537;-67
2021/04/24 00:25:35;;;;;;;8.35;6.22;;;13.20;68.10;;;;;;5113074;28;20048;-67
2021/04/24 00:28:01;;;;;;;9.88;6.20;;;13.20;68.10;;;;;;5113001;28;20027;-68
2021/04/24 00:30:27;;;;;;;11.15;6.32;;;13.30;68.10;;;;;;5113025;28;20024;-67
2021/04/24 00:32:54;;;;;;;10.98;6.55;;;13.20;68.00;;;;;;5112993;28;20421;-68
2021/04/24 00:35:20;;;;;;;10.80;6.60;;;13.20;68.70;;;;;;5112778;28;20383;-68
2021/04/24 00:37:47;;;;;;;14.18;6.50;;;13.20;68.20;;;;;;5113026;28;20024;-69
2021/04/24 00:40:14;;;;;;;8.52;6.47;;;13.20;68.30;;;;;;5113215;28;20024;-68
2021/04/24 00:42:40;;;;;;;8.65;6.53;;;13.10;68.50;;;;;;5113055;28;20464;-68
2021/04/24 00:45:09;;;;;;;9.30;6.53;;;13.10;68.40;;;;;;5112610;28;20040;-68
2021/04/24 00:47:35;;;;;;;10.32;6.68;;;13.10;68.00;;;;;;5112685;28;20034;-69
2021/04/24 00:50:01;;;;;;;10.70;7.70;;;;;;;;;;5115615;28;20023;-68
2021/04/24 00:52:26;;;;;;;14.55;7.72;;;13.10;66.80;;;;;;5116446;28;20028;-69
2021/04/24 00:54:52;;;;;;;13.60;7.63;;;13.00;66.90;;;;;;5116101;28;20369;-69
2021/04/24 00:57:19;;;;;;;10.35;7.95;;;13.00;67.00;;;;;;5116209;28;20051;-68
2021/04/24 00:59:47;;;;;;;15.25;7.43;;;12.90;67.40;;;;;;5112878;28;20032;-69
2021/04/24 01:02:15;;;;;;;12.65;8.60;;;12.90;67.60;;;;;;5113485;28;20024;-69
2021/04/24 01:04:41;;;;;;;13.05;7.60;;;12.80;67.60;;;;;;5114253;28;20388;-69
2021/04/24 01:07:07;;;;;;;10.32;7.72;;;12.80;68.00;;;;;;5115959;28;20035;-69
2021/04/24 01:09:32;;;;;;;10.35;8.23;;;12.70;68.10;;;;;;5116167;28;20027;-69
2021/04/24 01:11:58;;;;;;;10.63;8.30;;;12.60;68.50;;;;;;5116009;28;20397;-68
2021/04/24 01:14:24;;;;;;;9.43;7.82;;;12.60;68.10;;;;;;5115531;28;20026;-69
2021/04/24 01:16:50;;;;;;;14.30;7.85;;;12.50;68.00;;;;;;5115891;28;20019;-69
2021/04/24 01:19:21;;;;;;;10.00;7.60;;;12.50;68.20;;;;;;5116008;28;20440;-68
2021/04/24 01:21:48;;;;;;;13.43;8.50;;;12.50;68.10;;;;;;5115842;28;20402;-68
2021/04/24 01:24:13;;;;;;;10.43;7.68;;;12.40;67.90;;;;;;5115617;28;20043;-69
2021/04/24 01:26:39;;;;;;;11.02;8.45;;;12.40;67.80;;;;;;5115678;28;20028;-69
2021/04/24 01:29:06;;;;;;;10.82;7.25;;;12.40;67.50;;;;;;5115503;28;20024;-69
2021/04/24 01:31:36;;;;;;;14.18;7.43;;;12.40;67.40;;;;;;5115648;28;20024;-69
2021/04/24 01:34:04;;;;;;;10.18;7.90;;;12.40;67.20;;;;;;5115754;28;20030;-68
2021/04/24 01:36:30;;;;;;;11.90;7.22;;;12.30;67.10;;;;;;5115401;28;20034;-68
2021/04/24 01:38:55;;;;;;;10.43;7.47;;;12.30;67.20;;;;;;5115647;28;20028;-69
2021/04/24 01:41:21;;;;;;;12.50;7.80;;;12.20;67.40;;;;;;5115522;28;20430;-69
2021/04/24 01:43:55;;;;;;;11.93;7.75;;;12.20;67.90;;;;;;5115231;28;20106;-68
2021/04/24 01:46:21;;;;;;;9.63;7.75;;;12.10;68.00;;;;;;5115478;28;20111;-69
2021/04/24 01:48:48;;;;;;;8.48;7.50;;;12.00;68.20;;;;;;5115377;28;20376;-68
2021/04/24 01:51:14;;;;;;;8.50;7.32;;;12.10;68.10;;;;;;5115219;28;20039;-69
2021/04/24 01:53:40;;;;;;;8.57;6.35;;;12.10;68.30;;;;;;5115532;28;20028;-68
2021/04/24 01:56:08;;;;;;;8.48;6.78;;;12.00;68.80;;;;;;5115279;28;20035;-69
2021/04/24 01:58:34;;;;;;;8.52;6.93;;;12.00;69.50;;;;;;5114900;28;20027;-68
2021/04/24 02:01:05;;;;;;;11.65;6.35;;;12.00;69.20;;;;;;5114694;28;20034;-69
2021/04/24 02:03:31;;;;;;;12.38;6.13;;;11.90;69.70;;;;;;5115104;28;20028;-69
2021/04/24 02:05:57;;;;;;;9.70;6.32;;;11.90;69.60;;;;;;5114666;28;20046;-69
2021/04/24 02:08:31;;;;;;;8.30;5.90;;;11.90;70.40;;;;;;5115094;28;20054;-69
2021/04/24 02:10:57;;;;;;;10.80;6.85;;;11.90;69.60;;;;;;5114732;28;20102;-69
2021/04/24 02:13:27;;;;;;;10.15;6.90;;;11.90;69.40;;;;;;5113838;28;20073;-69
2021/04/24 02:15:53;;;;;;;8.27;6.60;;;11.90;69.30;;;;;;5114701;28;20028;-69
2021/04/24 02:18:19;;;;;;;9.10;6.65;;;11.80;69.30;;;;;;5114838;28;20026;-68
2021/04/24 02:20:45;;;;;;;10.98;6.90;;;11.80;69.80;;;;;;5114870;28;20066;-68
2021/04/24 02:23:13;;;;;;;8.45;6.43;;;11.70;69.70;;;;;;5114672;28;20560;-69
2021/04/24 02:25:40;;;;;;;8.80;6.47;;;11.70;69.90;;;;;;5114496;28;20047;-69
2021/04/24 02:28:06;;;;;;;11.57;6.93;;;11.70;69.80;;;;;;5114588;28;20051;-69
2021/04/24 02:30:32;;;;;;;8.73;6.50;;;11.70;69.40;;;;;;5114794;28;20387;-68
2021/04/24 02:32:58;;;;;;;17.13;7.47;;;11.60;69.60;;;;;;5114351;28;20048;-69
2021/04/24 02:35:50;;;;;;;7.32;6.40;;;11.60;69.90;;;;;;5114450;28;20076;-68
2021/04/24 02:38:25;;;;;;;9.38;6.30;;;11.60;69.70;;;;;;5114200;28;20054;-68
2021/04/24 02:40:52;;;;;;;11.20;6.65;;;11.50;68.90;;;;;;5112861;28;20028;-69
2021/04/24 02:43:18;;;;;;;9.43;6.95;;;11.50;69.20;;;;;;5114264;28;20024;-68
2021/04/24 02:45:45;;;;;;;10.57;7.25;;;11.50;68.90;;;;;;5114373;28;20074;-68
2021/04/24 02:48:11;;;;;;;8.70;6.68;;;11.50;69.10;;;;;;5114191;28;20019;-68
2021/04/24 02:50:37;;;;;;;7.53;6.45;;;11.40;69.10;;;;;;5113934;28;20034;-69
2021/04/24 02:53:03;;;;;;;11.57;6.72;;;11.50;69.10;;;;;;5114085;28;20031;-69
2021/04/24 02:55:30;;;;;;;8.52;6.68;;;11.50;69.10;;;;;;5114125;28;20618;-69
2021/04/24 02:57:55;;;;;;;9.25;6.57;;;11.40;69.40;;;;;;5114243;28;20500;-70
2021/04/24 03:00:22;;;;;;;12.02;5.10;;;11.40;69.30;;;;;;5113785;28;20035;-69
2021/04/24 03:03:08;;;;;;;11.55;4.75;;;11.40;68.20;;;;;;5114098;28;20020;-68
2021/04/24 03:05:35;;;;;;;8.68;4.38;;;11.40;67.60;;;;;;5114030;28;20044;-69
2021/04/24 03:08:02;;;;;;;8.90;4.82;;;11.40;67.00;;;;;;5114166;28;20368;-69
2021/04/24 03:10:28;;;;;;;7.13;4.50;;;11.40;66.40;;;;;;5113751;28;20024;-69
2021/04/24 03:12:54;;;;;;;6.93;4.32;;;11.40;65.70;;;;;;5113476;28;20065;-68
2021/04/24 03:15:21;;;;;;;10.73;4.35;;;11.40;65.00;;;;;;5113882;28;20066;-68
2021/04/24 03:17:47;;;;;;;9.63;4.25;;;11.40;64.50;;;;;;5113518;28;20353;-69
2021/04/24 03:20:15;;;;;;;8.75;3.90;;;11.40;64.00;;;;;;5113546;28;20035;-68
2021/04/24 03:22:40;;;;;;;9.05;4.20;;;11.50;64.10;;;;;;5113816;28;20384;-69
2021/04/24 03:25:08;;;;;;;7.45;3.40;;;11.50;63.50;;;;;;5113330;28;20048;-68
2021/04/24 03:27:34;;;;;;;11.23;4.50;;;11.50;63.70;;;;;;5113262;28;20032;-68
2021/04/24 03:30:00;;;;;;;9.65;3.70;;;11.50;63.40;;;;;;5113409;28;20022;-69
2021/04/24 03:32:26;;;;;;;9.73;4.00;;;11.40;63.30;;;;;;5113553;28;20102;-68
2021/04/24 03:34:52;;;;;;;7.07;4.18;;;11.50;63.30;;;;;;5113533;28;20023;-69
2021/04/24 03:37:17;;;;;;;6.60;4.45;;;11.50;63.90;;;;;;5113525;28;20024;-68
2021/04/24 03:39:43;;;;;;;9.77;4.15;;;11.50;64.70;;;;;;5113490;28;20023;-68
2021/04/24 03:42:11;;;;;;;7.40;4.18;;;11.50;64.90;;;;;;5113398;28;20023;-69
2021/04/24 03:44:37;;;;;;;8.65;3.97;;;11.50;64.30;;;;;;5113392;28;20028;-69
2021/04/24 03:47:03;;;;;;;23.27;5.13;;;11.40;64.50;;;;;;5113417;28;20032;-69
2021/04/24 03:49:28;;;;;;;12.25;4.35;;;11.40;63.90;;;;;;5113458;28;20024;-68
2021/04/24 03:51:54;;;;;;;10.00;4.90;;;11.50;64.20;;;;;;5113538;28;20031;-68
2021/04/24 03:54:20;;;;;;;10.18;4.80;;;11.50;63.60;;;;;;5113420;28;20024;-69
2021/04/24 03:56:45;;;;;;;11.18;5.07;;;11.50;63.60;;;;;;5113347;28;20028;-69
2021/04/24 03:59:11;;;;;;;8.63;4.93;;;11.40;63.50;;;;;;5113271;28;20038;-69
2021/04/24 04:01:37;;;;;;;6.60;5.00;;;11.40;63.50;;;;;;5112909;28;20024;-69
2021/04/24 04:04:03;;;;;;;13.13;5.10;;;11.40;63.60;;;;;;5113279;28;20106;-68
2021/04/24 04:06:28;;;;;;;7.18;4.68;;;11.30;63.20;;;;;;5113138;28;20136;-68
2021/04/24 04:08:54;;;;;;;11.30;5.30;;;11.30;63.50;;;;;;5113290;28;20099;-69
2021/04/24 04:11:20;;;;;;;11.35;5.57;;;11.20;64.20;;;;;;5113343;28;20035;-69
2021/04/24 04:13:46;;;;;;;11.50;5.60;;;11.20;64.60;;;;;;5113387;28;20027;-69
2021/04/24 04:16:11;;;;;;;12.98;5.82;;;11.20;64.40;;;;;;5112998;28;20032;-68
2021/04/24 04:18:37;;;;;;;14.52;5.80;;;11.10;64.90;;;;;;5113177;28;20020;-69
2021/04/24 04:21:05;;;;;;;12.32;5.85;;;11.10;64.50;;;;;;5111568;28;20039;-69
2021/04/24 04:23:31;;;;;;;7.88;4.97;;;11.10;65.50;;;;;;5113701;28;20099;-68
2021/04/24 04:25:57;;;;;;;8.15;5.45;;;11.00;65.40;;;;;;5116726;28;20035;-68
2021/04/24 04:28:24;;;;;;;9.38;5.45;;;11.00;65.80;;;;;;5116731;28;20031;-69
2021/04/24 04:30:51;;;;;;;7.53;5.30;;;11.00;66.00;;;;;;5116888;28;20031;-68
2021/04/24 04:33:17;;;;;;;9.38;5.20;;;11.00;65.60;;;;;;5116875;28;20016;-67
2021/04/24 04:35:43;;;;;;;9.45;5.20;;;11.00;65.90;;;;;;5116536;28;20016;-68
2021/04/24 04:38:10;;;;;;;9.13;5.25;;;11.00;66.30;;;;;;5116630;28;20048;-68
2021/04/24 04:40:36;;;;;;;8.68;4.78;;;11.00;66.30;;;;;;5116574;28;20115;-69
2021/04/24 04:43:03;;;;;;;8.50;4.70;;;11.00;66.10;;;;;;5116769;28;20035;-69
2021/04/24 04:45:29;;;;;;;7.90;4.47;;;11.00;66.00;;;;;;5116784;28;20054;-68
2021/04/24 04:47:54;;;;;;;11.90;4.78;;;11.00;66.10;;;;;;5116246;28;20019;-68
2021/04/24 04:50:23;;;;;;;8.07;4.90;;;11.00;66.80;;;;;;5116213;28;20460;-68
2021/04/24 04:52:49;;;;;;;10.85;5.78;;;11.10;66.20;;;;;;5116350;28;20020;-68
2021/04/24 04:55:15;;;;;;;9.15;4.50;;;11.10;65.90;;;;;;5116263;28;20026;-68
2021/04/24 04:57:41;;;;;;;11.45;4.50;;;11.10;66.60;;;;;;5116251;28;20015;-69
2021/04/24 05:00:10;;;;;;;8.65;4.57;;;11.10;65.50;;;;;;5116170;28;20027;-69
2021/04/24 05:02:36;;;;;;;10.38;4.10;;;11.10;65.40;;;;;;5116290;28;20055;-68
2021/04/24 05:05:02;;;;;;;8.40;4.50;;;11.20;65.30;;;;;;5116051;28;20024;-68
2021/04/24 05:07:28;;;;;;;19.17;5.15;;;11.20;64.40;;;;;;5116113;28;20475;-68
2021/04/24 05:09:53;;;;;;;9.40;5.35;;;11.20;65.60;;;;;;5116367;28;20031;-68
2021/04/24 05:12:19;;;;;;;8.60;5.10;;;11.30;66.30;;;;;;5116092;28;20539;-68
2021/04/24 05:14:45;;;;;;;14.20;4.63;;;11.30;65.40;;;;;;5115944;28;20019;-68
2021/04/24 05:17:10;;;;;;;15.40;5.45;;;11.30;65.40;;;;;;5115912;28;20151;-68
2021/04/24 05:19:37;;;;;;;9.70;4.75;;;11.30;65.80;;;;;;5116104;28;20024;-68
2021/04/24 05:22:03;;;;;;;12.40;5.43;;;11.40;65.60;;;;;;5115850;28;20024;-68
2021/04/24 05:24:30;;;;;;;9.30;4.60;;;11.40;65.70;;;;;;5115682;28;20040;-68
2021/04/24 05:26:56;;;;;;;13.27;5.15;;;11.40;65.50;;;;;;5115496;28;20036;-68
2021/04/24 05:29:22;;;;;;;8.57;4.75;;;11.50;65.70;;;;;;5115811;28;20049;-68
2021/04/24 05:31:48;;;;;;;5.65;4.07;;;11.50;65.70;;;;;;5115675;28;20418;-68
2021/04/24 05:34:13;;;;;;;11.23;4.20;;;11.60;65.70;;;;;;5115408;28;20074;-68
2021/04/24 05:36:39;;;;;;;9.07;4.32;;;11.60;64.80;;;;;;5115674;28;20024;-68
2021/04/24 05:39:06;;;;;;;9.05;4.57;;;11.60;66.10;;;;;;5115623;28;20016;-68
2021/04/24 05:41:33;;;;;;;8.82;4.80;;;11.70;66.10;;;;;;5115200;28;20032;-68
2021/04/24 05:43:59;;;;;;;8.57;5.07;;;11.80;65.80;;;;;;5115492;28;20076;-68
2021/04/24 05:46:28;;;;;;;10.38;4.53;;;11.80;65.70;;;;;;5115237;28;20480;-68
2021/04/24 05:48:54;;;;;;;7.47;4.28;;;11.80;65.80;;;;;;5114291;28;20016;-68
2021/04/24 05:51:21;;;;;;;9.80;4.43;;;11.90;65.50;;;;;;5115153;28;20528;-68
2021/04/24 05:53:50;;;;;;;10.88;4.55;;;12.00;64.60;;;;;;5115230;28;20024;-68
2021/04/24 05:56:17;;;;;;;12.15;4.88;;;12.10;64.10;;;;;;5115142;28;20027;-69
2021/04/24 05:58:43;;;;;;;14.90;5.28;;;12.20;64.00;;;;;;5114929;28;20024;-68
2021/04/24 06:01:09;;;;;;;7.90;4.13;;;12.20;64.50;;;;;;5114860;28;20024;-69
2021/04/24 06:03:34;;;;;;;8.02;3.70;;;12.30;63.60;;;;;;5114954;28;20026;-68
2021/04/24 06:06:00;;;;;;;10.23;3.42;;;12.30;61.30;;;;;;5114813;28;20034;-68
2021/04/24 06:08:26;;;;;;;9.05;3.65;;;12.40;59.90;;;;;;5113187;28;20024;-68
2021/04/24 06:10:51;;;;;;;7.70;3.45;;;12.50;60.10;;;;;;5114100;28;20048;-68
2021/04/24 06:13:23;;;;;;;8.55;3.67;;;12.50;59.90;;;;;;5114244;28;20026;-68
2021/04/24 06:15:49;;;;;;;8.38;3.80;;;12.60;59.80;;;;;;5114182;28;20027;-68
2021/04/24 06:18:16;;;;;;;6.38;3.53;;;12.70;60.20;;;;;;5114694;28;20476;-67
2021/04/24 06:20:42;;;;;;;15.43;5.20;;;12.70;59.40;;;;;;5114038;28;20077;-68
2021/04/24 06:23:08;;;;;;;11.40;5.03;;;12.80;60.40;;;;;;5113854;28;20032;-68
2021/04/24 06:25:34;;;;;;;8.30;4.40;;;12.90;61.00;;;;;;5114091;28;20112;-69
2021/04/24 06:28:00;;;;;;;9.63;4.22;;;12.90;61.10;;;;;;5067812;28;20072;-68
2021/04/24 06:30:25;;;;;;;8.85;4.25;;;13.00;61.00;;;;;;5073768;28;20053;-67
2021/04/24 06:32:52;;;;;;;11.30;5.18;;;13.10;60.70;;;;;;5073413;28;20055;-68
2021/04/24 06:35:20;;;;;;;13.05;5.15;;;13.10;61.10;;;;;;5072176;28;20028;-68
2021/04/24 06:37:47;;;;;;;9.70;4.90;;;13.20;61.40;;;;;;5073188;28;20024;-68
2021/04/24 06:40:15;;;;;;;11.82;5.07;;;13.20;61.50;;;;;;5073590;28;20017;-68
2021/04/24 06:42:41;;;;;;;14.18;5.45;;;13.30;61.60;;;;;;5073462;28;20035;-68
2021/04/24 06:45:09;;;;;;;11.50;4.78;;;13.30;62.10;;;;;;5073170;28;20020;-68
2021/04/24 06:47:35;;;;;;;10.05;4.50;;;13.30;61.20;;;;;;5072736;28;20020;-68
2021/04/24 06:50:04;;;;;;;12.80;4.68;;;13.40;61.10;;;;;;5073205;28;20024;-69
2021/04/24 06:52:29;;;;;;;13.82;5.18;;;13.40;61.20;;;;;;5072738;28;20020;-68
2021/04/24 06:54:55;;;;;;;11.23;4.40;;;13.40;60.10;;;;;;5073753;28;20025;-68
2021/04/24 06:57:21;;;;;;;7.70;3.67;;;13.50;60.00;;;;;;5073456;28;20027;-68
2021/04/24 06:59:47;;;;;;;7.70;3.20;;;13.60;59.80;;;;;;5073419;28;20021;-68
2021/04/24 07:02:13;;;;;;;7.47;3.40;;;13.60;58.70;;;;;;5073419;28;20028;-68
2021/04/24 07:04:39;;;;;;;10.40;3.25;;;13.70;55.50;;;;;;5073115;28;20021;-69
2021/04/24 07:07:05;;;;;;;9.77;3.10;;;13.80;54.70;;;;;;5073361;28;20039;-68
2021/04/24 07:09:32;;;;;;;6.22;3.20;;;13.80;54.20;;;;;;5073520;28;20372;-67
2021/04/24 07:11:57;;;;;;;7.35;2.60;;;13.90;55.10;;;;;;5072848;28;20032;-72
2021/04/24 07:14:23;;;;;;;7.43;2.88;;;13.90;54.50;;;;;;5073102;28;20032;-68
2021/04/24 07:16:49;;;;;;;8.43;3.05;;;14.00;53.80;;;;;;5073078;28;20070;-67
2021/04/24 07:19:15;;;;;;;6.47;2.90;;;14.10;52.10;;;;;;5073084;28;20130;-67
2021/04/24 07:21:41;;;;;;;15.77;4.85;;;14.20;52.50;;;;;;5073022;28;20381;-70
2021/04/24 07:24:07;;;;;;;9.80;2.78;;;14.30;52.40;;;;;;5073012;28;20123;-67
2021/04/24 07:26:33;;;;;;;6.07;2.90;;;14.30;52.50;;;;;;5073065;28;20044;-67
2021/04/24 07:28:58;;;;;;;8.15;3.15;;;14.40;52.00;;;;;;5073446;28;20021;-67
2021/04/24 07:31:24;;;;;;;9.77;3.15;;;14.50;52.00;;;;;;5072950;28;20029;-67
2021/04/24 07:33:50;;;;;;;9.23;3.17;;;14.50;51.40;;;;;;5072886;28;20101;-68
2021/04/24 07:36:17;;;;;;;8.13;3.22;;;14.60;50.30;;;;;;5072786;28;20032;-67
2021/04/24 07:38:42;;;;;;;7.13;3.08;;;14.70;51.60;;;;;;5072751;28;20047;-68
2021/04/24 07:41:08;;;;;;;5.10;2.67;;;14.70;51.20;;;;;;5073186;28;20060;-68
2021/04/24 07:43:34;;;;;;;6.75;2.80;;;14.80;52.50;;;;;;5073062;28;20063;-68
2021/04/24 07:46:00;;;;;;;12.40;2.95;;;14.90;52.00;;;;;;5073046;28;20032;-67
2021/04/24 07:48:26;;;;;;;10.00;3.90;;;15.10;51.70;;;;;;5072968;28;20027;-67
2021/04/24 07:50:52;;;;;;;8.05;2.78;;;15.10;50.90;;;;;;5073241;28;20024;-67
2021/04/24 07:53:20;;;;;;;8.75;3.55;;;15.20;51.00;;;;;;5073072;28;20139;-67
2021/04/24 07:55:46;;;;;;;7.70;2.97;;;15.30;51.70;;;;;;5072717;28;20516;-67
2021/04/24 07:58:11;;;;;;;7.93;2.65;;;15.40;50.10;;;;;;5074878;28;20021;-67
2021/04/24 08:00:37;;;;;;;7.28;3.20;;;15.40;50.30;;;;;;5077054;28;20373;-68
2021/04/24 08:03:04;;;;;;;6.93;3.22;;;15.50;50.90;;;;;;5076657;28;20032;-68
2021/04/24 08:05:30;;;;;;;7.30;2.65;;;15.70;50.80;;;;;;5077133;28;20032;-67
2021/04/24 08:07:56;;;;;;;6.93;2.50;;;15.70;49.70;;;;;;5077020;28;20021;-68
2021/04/24 08:10:21;;;;;;;8.23;2.70;;;15.80;49.90;;;;;;5076631;28;20031;-68
2021/04/24 08:12:47;;;;;;;5.95;2.75;;;15.90;50.00;;;;;;5075981;28;20044;-68
2021/04/24 08:15:14;;;;;;;9.30;3.13;;;16.00;49.80;;;;;;5076648;28;20023;-67
2021/04/24 08:17:40;;;;;;;6.78;2.53;;;16.00;49.70;;;;;;5076482;28;20051;-67
2021/04/24 08:20:07;;;;;;;6.93;2.60;;;16.10;49.30;;;;;;5074939;28;20016;-68
2021/04/24 08:22:34;;;;;;;4.90;2.65;;;16.20;50.30;;;;;;5076282;28;20162;-67
2021/04/24 08:25:00;;;;;;;6.68;2.40;;;16.40;48.80;;;;;;5076348;28;20072;-68
2021/04/24 08:27:26;;;;;;;9.05;2.63;;;16.40;48.80;;;;;;5076315;28;20039;-67
2021/04/24 08:29:52;;;;;;;12.20;2.53;;;16.50;48.10;;;;;;5076187;28;20024;-67
2021/04/24 08:32:18;;;;;;;6.88;2.72;;;16.60;46.50;;;;;;5075853;28;20054;-68
2021/04/24 08:34:43;;;;;;;7.35;2.28;;;16.60;46.70;;;;;;5076187;28;20029;-67
2021/04/24 08:37:10;;;;;;;10.38;2.83;;;16.60;47.20;;;;;;5075838;28;20052;-68
2021/04/24 08:39:37;;;;;;;8.95;2.33;;;16.70;47.60;;;;;;5075831;28;20024;-67
2021/04/24 08:42:03;;;;;;;8.35;3.15;;;16.70;46.40;;;;;;5075842;28;20031;-68
2021/04/24 08:44:29;;;;;;;6.72;2.80;;;16.80;47.10;;;;;;5076030;28;20023;-67
2021/04/24 08:46:55;;;;;;;6.25;2.47;;;16.80;45.90;;;;;;5075481;28;20036;-68
2021/04/24 08:49:22;;;;;;;7.72;2.40;;;17.00;44.50;;;;;;5075565;28;20024;-68
2021/04/24 08:51:50;;;;;;;5.38;2.90;;;17.00;43.80;;;;;;5074400;28;20055;-67
2021/04/24 08:54:16;;;;;;;9.05;2.45;;;17.10;43.80;;;;;;5074468;28;20035;-67
2021/04/24 08:56:42;;;;;;;7.10;2.65;;;17.20;43.70;;;;;;5075831;28;20033;-68
2021/04/24 08:59:08;;;;;;;7.38;2.55;;;17.20;44.00;;;;;;5075750;28;20025;-67
2021/04/24 09:01:34;;;;;;;6.50;2.50;;;17.30;43.60;;;;;;5075753;28;20031;-68
2021/04/24 09:04:00;;;;;;;5.15;2.03;;;17.40;40.90;;;;;;5075844;28;20032;-68
2021/04/24 09:06:28;;;;;;;6.88;2.25;;;17.40;40.70;;;;;;5075712;28;20484;-67
2021/04/24 09:08:59;;;;;;;4.63;2.17;;;17.50;40.90;;;;;;5075082;28;20017;-67
2021/04/24 09:11:26;;;;;;;8.23;2.30;;;17.60;41.40;;;;;;5075457;28;20052;-67
2021/04/24 09:14:04;;;;;;;6.28;2.60;;;17.70;41.40;;;;;;5075629;28;20016;-67
2021/04/24 09:16:31;;;;;;;5.03;2.40;;;17.80;41.50;;;;;;5075565;28;20031;-68
2021/04/24 09:18:57;;;;;;;5.55;2.50;;;17.90;41.00;;;;;;5075259;28;20025;-67
2021/04/24 09:21:25;;;;;;;5.47;2.50;;;18.00;42.70;;;;;;5075462;28;20099;-68
2021/04/24 09:23:51;;;;;;;10.05;2.30;;;18.10;43.40;;;;;;5075519;28;20044;-69
2021/04/24 09:26:21;;;;;;;10.13;3.08;;;18.20;42.10;;;;;;5075514;28;20389;-68
2021/04/24 09:28:51;;;;;;;11.15;2.58;;;18.30;41.40;;;;;;5075883;28;20056;-67
2021/04/24 09:31:22;;;;;;;7.05;2.80;;;18.30;40.90;;;;;;5075307;28;20106;-68
2021/04/24 09:33:51;;;;;;;9.95;3.38;;;18.40;41.80;;;;;;5075157;28;20013;-68
2021/04/24 09:36:17;;;;;;;6.95;2.58;;;18.40;41.70;;;;;;5075340;28;20028;-68
2021/04/24 09:38:49;;;;;;;3.58;2.13;;;18.50;41.80;;;;;;5075303;28;20029;-69
2021/04/24 09:41:28;;;;;;;7.38;2.60;;;18.60;41.30;;;;;;5075037;28;20021;-69
2021/04/24 09:43:57;;;;;;;7.53;3.17;;;18.70;39.50;;;;;;5074964;28;20473;-68
2021/04/24 09:46:27;;;;;;;7.53;3.00;;;18.80;40.50;;;;;;5074780;28;20035;-68
2021/04/24 09:49:12;;;;;;;4.93;2.55;;;18.90;41.70;;;;;;5074723;28;20021;-68
2021/04/24 09:51:43;;;;;;;5.55;2.60;;;18.90;39.30;;;;;;5075437;28;20465;-69
2021/04/24 09:54:10;;;;;;;5.35;2.70;;;19.00;40.50;;;;;;5074975;28;20073;-70
2021/04/24 09:56:36;;;;;;;8.65;3.22;;;19.10;40.90;;;;;;5074832;28;20017;-68
2021/04/24 09:59:05;;;;;;;6.00;2.80;;;19.10;41.00;;;;;;5074722;28;20033;-69
2021/04/24 10:01:32;;;;;;;5.88;2.38;;;19.20;39.50;;;;;;5073503;28;20082;-69
2021/04/24 10:04:00;;;;;;;12.60;2.35;;;19.20;39.10;;;;;;5073387;28;20028;-68
2021/04/24 10:06:44;;;;;;;5.10;2.78;;;19.30;39.40;;;;;;5074773;28;20043;-68
2021/04/24 10:09:21;;;;;;;10.38;3.58;;;19.40;40.70;;;;;;5074652;28;20016;-68
2021/04/24 10:11:58;;;;;;;10.15;3.53;;;19.50;40.20;;;;;;5074371;28;20012;-68
2021/04/24 10:14:27;;;;;;;8.35;3.45;;;19.50;41.20;;;;;;5074588;28;20029;-69
2021/04/24 10:16:54;;;;;;;8.13;4.20;;;19.60;40.70;;;;;;5074628;28;20028;-70
2021/04/24 10:19:20;;;;;;;8.10;3.70;;;19.70;40.50;;;;;;5074402;28;20032;-70
2021/04/24 10:21:46;;;;;;;5.38;3.30;;;19.80;41.10;;;;;;5074339;28;20025;-68
2021/04/24 10:24:12;;;;;;;7.30;2.97;;;19.80;40.80;;;;;;5074224;28;20417;-69
2021/04/24 10:26:41;;;;;;;6.28;3.08;;;19.90;41.30;;;;;;5073800;28;20033;-68
2021/04/24 10:29:07;;;;;;;8.70;2.90;;;20.00;41.30;;;;;;5074672;28;20457;-69
2021/04/24 10:31:34;;;;;;;6.95;3.30;;;20.10;38.40;;;;;;5074348;28;20031;-68
2021/04/24 10:34:04;;;;;;;4.95;3.15;;;20.20;38.80;;;;;;5074080;28;20017;-69
2021/04/24 10:36:30;;;;;;;8.88;3.72;;;20.20;39.50;;;;;;5074286;28;20043;-69
2021/04/24 10:38:57;;;;;;;7.25;2.83;;;20.20;39.00;;;;;;5074157;28;20082;-69
2021/04/24 10:41:35;;;;;;;10.00;2.88;;;20.20;40.00;;;;;;5073649;28;20025;-68
2021/04/24 10:44:05;;;;;;;9.35;2.50;;;20.20;39.20;;;;;;5073873;28;20082;-69
2021/04/24 10:46:45;;;;;;;8.68;3.17;;;20.30;41.10;;;;;;5073859;28;20033;-69
2021/04/24 10:49:32;;;;;;;10.73;3.40;;;20.40;38.60;;;;;;5073849;28;20024;-68
2021/04/24 10:52:06;;;;;;;10.50;3.58;;;20.50;38.30;;;;;;5073766;28;20028;-68
2021/04/24 10:54:38;;;;;;;6.15;2.75;;;20.60;37.00;;;;;;5072441;28;20103;-68
2021/04/24 10:57:39;;;;;;;8.48;3.25;;;20.60;38.50;;;;;;5071622;28;20029;-68
2021/04/24 11:00:23;;;;;;;9.02;3.10;;;20.60;35.80;;;;;;5071691;28;20358;-68
2021/04/24 11:02:57;;;;;;;9.55;3.42;;;20.60;38.50;;;;;;5072016;28;20031;-68
2021/04/24 11:05:46;;;;;;;9.15;2.75;;;20.70;38.50;;;;;;5071772;28;20024;-67
2021/04/24 11:08:14;;;;;;;5.63;3.22;;;20.80;38.50;;;;;;5073173;28;20025;-68
2021/04/24 11:10:46;;;;;;;6.20;3.10;;;20.80;40.20;;;;;;5071784;28;20548;-66
2021/04/24 11:13:14;;;;;;;7.85;3.03;;;21.00;37.70;;;;;;5072009;28;20473;-68
2021/04/24 11:15:41;;;;;;;11.05;3.38;;;;;;;;;;5072927;28;20083;-67
2021/04/24 11:18:10;;;;;;;9.35;3.13;;;21.20;38.10;;;;;;5068787;28;20073;-68
2021/04/24 11:20:45;;;;;;;5.95;2.90;;;21.20;39.00;;;;;;5070103;28;20033;-69
2021/04/24 11:23:29;;;;;;;7.30;3.30;;;21.20;38.50;;;;;;5070689;28;20473;-68
2021/04/24 11:25:55;;;;;;;8.73;3.10;;;21.30;38.30;;;;;;5072769;28;20052;-69
2021/04/24 11:28:22;;;;;;;11.35;4.07;;;21.30;38.20;;;;;;5073091;28;20493;-69
2021/04/24 11:30:59;;;;;;;8.73;3.38;;;21.40;38.00;;;;;;5072947;28;20401;-69
2021/04/24 11:33:34;;;;;;;8.90;3.20;;;21.50;37.10;;;;;;5071460;28;20024;-67
2021/04/24 11:38:59;;;;;;;7.72;3.00;;;21.70;40.10;;;;;;5070906;28;20021;-67
2021/04/24 11:41:28;;;;;;;7.68;3.17;;;21.80;35.50;;;;;;5073132;28;20025;-67
2021/04/24 11:43:54;;;;;;;10.25;3.33;;;21.80;37.80;;;;;;5073101;28;20358;-67
2021/04/24 11:46:40;;;;;;;6.43;3.33;;;21.80;36.50;;;;;;5072830;28;20090;-67
2021/04/24 11:49:11;;;;;;;5.43;2.85;;;21.90;37.70;;;;;;5072818;28;20082;-69
2021/04/24 11:51:42;;;;;;;8.90;3.20;;;21.90;36.60;;;;;;5071403;28;20060;-67
2021/04/24 11:54:19;;;;;;;9.07;3.10;;;22.00;36.90;;;;;;5072959;28;20039;-70
2021/04/24 11:56:48;;;;;;;11.68;4.40;;;22.00;37.60;;;;;;5072907;28;20035;-69
2021/04/24 11:59:20;;;;;;;10.02;3.58;;;22.10;34.40;;;;;;5069267;28;20060;-69
2021/04/24 12:01:45;;;;;;;6.25;3.20;;;22.10;36.80;;;;;;5070179;28;20558;-70
2021/04/24 12:04:25;;;;;;;7.18;3.20;;;22.10;37.70;;;;;;5071141;28;20048;-69
2021/04/24 12:06:58;;;;;;;5.78;3.33;;;22.10;37.10;;;;;;5072307;28;20032;-69
2021/04/24 12:09:24;;;;;;;7.22;3.00;;;22.10;35.80;;;;;;5072762;28;20416;-69
2021/04/24 12:11:56;;;;;;;9.95;3.05;;;22.20;37.10;;;;;;5072517;28;20032;-68
2021/04/24 12:14:23;;;;;;;9.80;2.95;;;22.20;37.70;;;;;;5072451;28;20033;-69
2021/04/24 12:16:50;;;;;;;8.55;3.10;;;22.30;37.20;;;;;;5072763;28;20021;-69
2021/04/24 12:19:37;;;;;;;6.57;3.03;;;22.40;37.30;;;;;;5072522;28;20036;-69
2021/04/24 12:22:08;;;;;;;6.30;2.70;;;22.50;39.50;;;;;;5072667;28;20020;-69
2021/04/24 12:24:48;;;;;;;7.50;3.30;;;22.60;37.90;;;;;;5072409;28;20044;-68
2021/04/24 12:27:33;;;;;;;6.38;2.72;;;22.60;37.30;;;;;;5072475;28;20029;-69
2021/04/24 12:30:01;;;;;;;6.22;3.60;;;22.60;36.10;;;;;;5072575;28;20104;-69
2021/04/24 12:32:36;;;;;;;7.93;3.30;;;22.60;38.30;;;;;;5072344;28;20500;-69
2021/04/24 12:35:12;;;;;;;5.85;3.20;;;22.70;34.60;;;;;;5070165;28;20036;-69
2021/04/24 12:37:38;;;;;;;6.78;3.05;;;22.70;34.70;;;;;;5069644;28;20064;-69
2021/04/24 12:40:30;;;;;;;7.05;3.10;;;22.70;36.70;;;;;;5071233;28;20017;-68
2021/04/24 12:43:10;;;;;;;8.88;2.78;;;22.70;35.60;;;;;;5073245;28;20051;-69
2021/04/24 12:45:40;;;;;;;8.63;3.30;;;22.70;36.40;;;;;;5074745;28;20147;-69
2021/04/24 12:48:21;;;;;;;10.73;3.10;;;22.70;36.10;;;;;;5075796;28;20047;-69
2021/04/24 12:50:53;;;;;;;6.97;2.90;;;22.80;37.20;;;;;;5075928;28;20032;-69